Wardell, Missouri
Current Conditions -  °F | °C
As of 10:24 AM on Friday 21 Nov 2014 (Local Time) from KHKA Reporting Station
Overcast Overcast  
Wind Chill: 40°   Ceiling: 5500
Heat Index: 46°   Visibility: 10mi
Dew Point: 31°   Wind: 15mph
Humidity: 56%   Direction: 110°ESE
Pressure: 30.37"   Gusts: NA
Location:  36.35°N, 89.82°W
Report Text: KHKA 211624Z AUTO 11013KT 10SM SCT024 SCT030 OVC055 08/M01 A3037 RMK AO2 RAE17 P0000 T00781006 $
Loading
Personal Weather Stations






























Interactive Weather Map New forecast layout! Learn more

10-Day Weather Forecast

Advertisements
Track Severe Weather on mobile